createdAt,value
2023-05-14T00:00:50.461Z,11.48
2023-05-14T00:03:41.220Z,10.93
2023-05-14T00:06:29.263Z,11.85
2023-05-14T00:09:23.923Z,12.07
2023-05-14T00:12:11.709Z,11.43
2023-05-14T00:15:01.223Z,11.23
2023-05-14T00:17:51.925Z,11.93
2023-05-14T00:20:42.053Z,10.38
2023-05-14T00:23:35.362Z,10.52
2023-05-14T00:26:22.826Z,11.57
2023-05-14T00:29:10.868Z,11.73
2023-05-14T00:31:58.309Z,11.38
2023-05-14T00:34:47.114Z,11.48
2023-05-14T00:37:36.885Z,11.07
2023-05-14T00:40:27.364Z,11.45
2023-05-14T00:43:14.579Z,11.80
2023-05-14T00:46:02.360Z,12.45
2023-05-14T00:48:53.746Z,12.68
2023-05-14T00:51:42.378Z,12.43
2023-05-14T00:54:31.834Z,12.00
2023-05-14T00:57:19.231Z,13.82
2023-05-14T01:00:09.100Z,13.18
2023-05-14T01:02:59.418Z,13.23
2023-05-14T01:05:57.470Z,13.27
2023-05-14T01:08:53.825Z,13.10
2023-05-14T01:11:53.413Z,12.77
2023-05-14T01:14:45.517Z,12.40
2023-05-14T01:17:38.246Z,12.70
2023-05-14T01:20:26.628Z,12.50
2023-05-14T01:23:19.271Z,12.52
2023-05-14T01:26:06.540Z,11.68
2023-05-14T01:28:58.562Z,11.85
2023-05-14T01:31:49.034Z,12.27
2023-05-14T01:34:40.756Z,12.70
2023-05-14T01:37:30.210Z,10.73
2023-05-14T01:40:26.068Z,12.48
2023-05-14T01:43:15.305Z,10.85
2023-05-14T01:46:04.901Z,11.52
2023-05-14T01:48:52.545Z,11.48
2023-05-14T01:51:40.056Z,11.00
2023-05-14T01:54:27.857Z,12.65
2023-05-14T01:57:17.117Z,12.30
2023-05-14T02:00:05.674Z,11.50
2023-05-14T02:02:53.393Z,10.50
2023-05-14T02:05:40.924Z,11.18
2023-05-14T02:08:28.362Z,11.05
2023-05-14T02:11:16.119Z,12.57
2023-05-14T02:14:04.858Z,11.50
2023-05-14T02:16:53.923Z,11.32
2023-05-14T02:19:41.617Z,10.25
2023-05-14T02:22:29.102Z,10.52
2023-05-14T02:25:16.907Z,11.32
2023-05-14T02:28:04.696Z,11.23
2023-05-14T02:31:01.233Z,10.43
2023-05-14T02:33:49.281Z,11.25
2023-05-14T02:36:36.597Z,10.23
2023-05-14T02:39:24.239Z,12.90
2023-05-14T02:42:11.522Z,11.48
2023-05-14T02:44:58.941Z,11.35
2023-05-14T02:47:47.704Z,11.48
2023-05-14T02:50:34.956Z,11.45
2023-05-14T02:53:22.564Z,12.00
2023-05-14T02:56:09.956Z,12.45
2023-05-14T02:58:57.386Z,11.57
2023-05-14T03:01:45.474Z,11.48
2023-05-14T03:04:34.900Z,12.40
2023-05-14T03:07:22.375Z,12.82
2023-05-14T03:10:11.624Z,11.85
2023-05-14T03:13:02.943Z,11.73
2023-05-14T03:15:55.818Z,11.70
2023-05-14T03:18:43.988Z,13.55
2023-05-14T03:21:33.170Z,13.68
2023-05-14T03:24:20.771Z,15.27
2023-05-14T03:27:11.034Z,13.23
2023-05-14T03:29:58.522Z,14.10
2023-05-14T03:32:47.652Z,13.30
2023-05-14T03:35:35.681Z,14.13
2023-05-14T03:38:26.700Z,14.10
2023-05-14T03:41:26.707Z,14.65
2023-05-14T03:44:14.888Z,14.18
2023-05-14T03:47:02.134Z,13.93
2023-05-14T03:49:50.333Z,14.75
2023-05-14T03:52:40.403Z,13.85
2023-05-14T03:55:29.193Z,13.32
2023-05-14T03:58:17.511Z,14.35
2023-05-14T04:01:08.686Z,14.38
2023-05-14T04:03:56.042Z,13.73
2023-05-14T04:06:44.000Z,14.93
2023-05-14T04:09:36.473Z,14.25
2023-05-14T04:15:22.523Z,13.38
2023-05-14T04:18:10.184Z,13.57
2023-05-14T04:20:58.401Z,13.75
2023-05-14T04:23:45.892Z,13.10
2023-05-14T04:26:33.528Z,14.57
2023-05-14T04:29:23.290Z,13.48
2023-05-14T04:32:10.661Z,12.88
2023-05-14T04:34:58.067Z,13.77
2023-05-14T04:37:49.466Z,13.77
2023-05-14T04:40:36.830Z,12.85
2023-05-14T04:43:24.710Z,13.02
2023-05-14T04:46:13.902Z,13.15
2023-05-14T04:49:01.472Z,15.00
2023-05-14T04:51:49.510Z,14.07
2023-05-14T04:54:37.794Z,15.30
2023-05-14T04:57:25.079Z,14.07
2023-05-14T05:00:17.836Z,15.52
2023-05-14T05:03:09.172Z,13.57
2023-05-14T05:06:01.229Z,14.55
2023-05-14T05:08:48.810Z,14.57
2023-05-14T05:11:36.385Z,13.85
2023-05-14T05:14:23.605Z,15.63
2023-05-14T05:17:11.714Z,12.88
2023-05-14T05:20:00.681Z,13.65
2023-05-14T05:22:48.427Z,13.48
2023-05-14T05:25:36.324Z,12.50
2023-05-14T05:28:24.693Z,13.73
2023-05-14T05:31:14.145Z,12.35
2023-05-14T05:34:07.204Z,13.18
2023-05-14T05:36:56.410Z,12.90
2023-05-14T05:39:44.138Z,11.23
2023-05-14T05:42:43.044Z,12.27
2023-05-14T05:45:30.931Z,12.20
2023-05-14T05:48:18.451Z,11.65
2023-05-14T05:51:09.234Z,11.63
2023-05-14T05:53:57.964Z,10.43
2023-05-14T05:56:50.604Z,11.75
2023-05-14T05:59:44.540Z,11.63
2023-05-14T06:02:32.293Z,11.30
2023-05-14T06:05:19.895Z,10.50
2023-05-14T06:08:08.050Z,10.90
2023-05-14T06:10:56.859Z,11.27
2023-05-14T06:13:45.267Z,11.85
2023-05-14T06:16:32.567Z,10.05
2023-05-14T06:19:20.111Z,10.48
2023-05-14T06:22:10.893Z,9.93
2023-05-14T06:24:58.104Z,9.77
2023-05-14T06:27:47.498Z,8.25
2023-05-14T06:30:35.449Z,9.07
2023-05-14T06:33:29.745Z,9.05
2023-05-14T06:36:20.341Z,9.63
2023-05-14T06:39:08.362Z,9.65
2023-05-14T06:41:55.750Z,9.20
2023-05-14T06:44:47.768Z,8.77
2023-05-14T06:47:35.069Z,8.85
2023-05-14T06:50:22.654Z,8.88
2023-05-14T06:53:10.253Z,8.18
2023-05-14T06:55:57.497Z,9.45
2023-05-14T06:58:44.757Z,8.45
2023-05-14T07:01:33.731Z,8.65
2023-05-14T07:04:24.317Z,9.00
2023-05-14T07:07:18.312Z,9.10
2023-05-14T07:10:09.004Z,9.00
2023-05-14T07:12:56.522Z,9.02
2023-05-14T07:15:44.107Z,9.35
2023-05-14T07:18:38.406Z,10.27
2023-05-14T07:21:26.336Z,8.30
2023-05-14T07:24:14.059Z,8.85
2023-05-14T07:27:02.076Z,8.60
2023-05-14T07:29:52.315Z,9.57
2023-05-14T07:32:39.998Z,8.98
2023-05-14T07:35:29.190Z,9.05
2023-05-14T07:38:17.588Z,9.93
2023-05-14T07:41:08.461Z,8.50
2023-05-14T07:44:00.789Z,9.00
2023-05-14T07:46:48.269Z,8.95
2023-05-14T07:49:38.012Z,8.55
2023-05-14T07:52:26.626Z,8.60
2023-05-14T07:55:14.233Z,8.77
2023-05-14T07:58:01.576Z,8.82
2023-05-14T08:00:54.461Z,8.40
2023-05-14T08:03:42.101Z,8.13
2023-05-14T08:06:29.602Z,7.93
2023-05-14T08:09:22.523Z,7.88
2023-05-14T08:12:10.012Z,7.72
2023-05-14T08:14:57.686Z,8.65
2023-05-14T08:17:45.905Z,7.43
2023-05-14T08:20:34.283Z,7.45
2023-05-14T08:23:28.264Z,7.65
2023-05-14T08:26:21.939Z,7.18
2023-05-14T08:29:11.232Z,7.35
2023-05-14T08:35:08.337Z,7.63
2023-05-14T08:37:56.997Z,7.10
2023-05-14T08:40:51.287Z,7.43
2023-05-14T08:43:47.764Z,6.60
2023-05-14T08:46:57.623Z,7.15
2023-05-14T08:49:52.490Z,6.65
2023-05-14T08:52:42.479Z,7.38
2023-05-14T08:55:37.010Z,7.43
2023-05-14T08:58:26.795Z,6.80
2023-05-14T09:01:15.855Z,7.25
2023-05-14T09:04:08.700Z,7.30
2023-05-14T09:07:09.890Z,7.88
2023-05-14T09:10:06.118Z,9.02
2023-05-14T09:12:59.018Z,7.45
2023-05-14T09:15:49.792Z,6.72
2023-05-14T09:18:43.307Z,7.15
2023-05-14T09:21:33.987Z,7.05
2023-05-14T09:24:22.450Z,6.90
2023-05-14T09:27:19.336Z,6.60
2023-05-14T09:30:09.173Z,6.93
2023-05-14T09:32:56.755Z,6.30
2023-05-14T09:35:47.854Z,6.50
2023-05-14T09:38:35.506Z,6.25
2023-05-14T09:41:24.855Z,6.53
2023-05-14T09:44:12.301Z,6.03
2023-05-14T09:47:00.902Z,6.30
2023-05-14T09:49:49.135Z,5.90
2023-05-14T09:52:38.902Z,5.55
2023-05-14T09:55:26.685Z,6.60
2023-05-14T09:58:24.549Z,6.55
2023-05-14T10:01:20.188Z,6.32
2023-05-14T10:04:09.828Z,5.90
2023-05-14T10:06:59.006Z,6.05
2023-05-14T10:09:48.413Z,7.03
2023-05-14T10:12:42.326Z,5.35
2023-05-14T10:15:37.160Z,6.53
2023-05-14T10:18:30.038Z,5.38
2023-05-14T10:21:21.808Z,5.65
2023-05-14T10:24:11.133Z,5.28
2023-05-14T10:27:00.617Z,5.57
2023-05-14T10:29:54.702Z,6.93
2023-05-14T10:32:44.226Z,5.07
2023-05-14T10:35:51.400Z,4.80
2023-05-14T10:38:39.048Z,4.68
2023-05-14T10:41:26.676Z,4.07
2023-05-14T10:44:16.895Z,5.03
2023-05-14T10:47:04.937Z,4.70
2023-05-14T10:49:58.806Z,5.20
2023-05-14T10:52:46.499Z,4.72
2023-05-14T10:55:37.760Z,5.07
2023-05-14T10:58:25.216Z,4.93
2023-05-14T11:01:14.651Z,4.70
2023-05-14T11:04:06.918Z,4.50
2023-05-14T11:06:55.469Z,5.40
2023-05-14T11:09:43.732Z,4.95
2023-05-14T11:12:32.142Z,4.47
2023-05-14T11:15:22.921Z,5.20
2023-05-14T11:18:13.772Z,4.78
2023-05-14T11:21:02.599Z,4.60
2023-05-14T11:24:00.460Z,5.20
2023-05-14T11:26:48.238Z,5.22
2023-05-14T11:29:48.051Z,4.57
2023-05-14T11:32:36.372Z,3.72
2023-05-14T11:35:26.297Z,4.93
2023-05-14T11:38:17.122Z,4.78
2023-05-14T11:41:13.495Z,5.00
2023-05-14T11:44:01.244Z,4.93
2023-05-14T11:46:58.533Z,5.78
2023-05-14T11:49:50.167Z,4.70
2023-05-14T11:52:41.767Z,4.53
2023-05-14T11:55:30.501Z,4.63
2023-05-14T11:58:20.203Z,4.80
2023-05-14T12:01:07.451Z,5.07
2023-05-14T12:03:57.453Z,3.80
2023-05-14T12:06:47.838Z,4.10
2023-05-14T12:09:43.568Z,5.20
2023-05-14T12:12:41.370Z,4.32
2023-05-14T12:15:32.010Z,4.63
2023-05-14T12:18:24.849Z,4.65
2023-05-14T12:21:15.866Z,4.40
2023-05-14T12:24:08.745Z,5.15
2023-05-14T12:27:02.159Z,4.80
2023-05-14T12:29:49.825Z,4.18
2023-05-14T12:32:47.512Z,5.38
2023-05-14T12:35:38.305Z,4.18
2023-05-14T12:38:28.798Z,4.05
2023-05-14T12:41:30.465Z,4.05
2023-05-14T12:44:23.054Z,3.53
2023-05-14T12:47:11.219Z,4.10
2023-05-14T12:49:58.984Z,4.25
2023-05-14T12:52:46.832Z,3.85
2023-05-14T12:55:43.940Z,4.47
2023-05-14T12:58:31.340Z,4.30
2023-05-14T13:01:20.518Z,5.05
2023-05-14T13:04:12.718Z,4.85
2023-05-14T13:07:02.388Z,4.25
2023-05-14T13:09:55.956Z,4.07
2023-05-14T13:12:44.494Z,4.15
2023-05-14T13:15:33.694Z,4.65
2023-05-14T13:18:23.469Z,4.05
2023-05-14T13:21:10.757Z,4.30
2023-05-14T13:23:57.959Z,4.25
2023-05-14T13:26:45.289Z,4.13
2023-05-14T13:29:37.159Z,4.15
2023-05-14T13:35:22.857Z,4.20
2023-05-14T13:38:10.450Z,4.10
2023-05-14T13:41:02.747Z,5.05
2023-05-14T13:43:59.488Z,3.97
2023-05-14T13:46:49.467Z,4.30
2023-05-14T13:49:36.977Z,4.00
2023-05-14T13:52:26.906Z,4.05
2023-05-14T13:55:18.037Z,3.97
2023-05-14T13:58:10.403Z,3.95
2023-05-14T14:01:01.038Z,4.10
2023-05-14T14:04:05.219Z,4.18
2023-05-14T14:06:53.067Z,4.05
2023-05-14T14:09:42.488Z,4.15
2023-05-14T14:12:31.502Z,4.00
2023-05-14T14:15:18.635Z,4.47
2023-05-14T14:18:06.106Z,3.75
2023-05-14T14:20:53.647Z,4.25
2023-05-14T14:23:41.105Z,3.55
2023-05-14T14:26:30.087Z,3.80
2023-05-14T14:29:40.327Z,3.90
2023-05-14T14:32:29.373Z,4.93
2023-05-14T14:35:22.578Z,3.72
2023-05-14T14:38:10.644Z,3.63
2023-05-14T14:41:21.546Z,3.88
2023-05-14T14:44:21.695Z,4.80
2023-05-14T14:47:09.333Z,4.20
2023-05-14T14:49:57.424Z,3.20
2023-05-14T14:52:48.106Z,4.70
2023-05-14T14:55:36.375Z,3.83
2023-05-14T14:58:28.453Z,3.58
2023-05-14T15:01:33.567Z,4.53
2023-05-14T15:04:22.561Z,4.30
2023-05-14T15:07:10.031Z,4.13
2023-05-14T15:10:08.593Z,4.20
2023-05-14T15:13:00.484Z,4.40
2023-05-14T15:15:56.163Z,5.13
2023-05-14T15:18:48.797Z,4.97
2023-05-14T15:21:40.228Z,5.22
2023-05-14T15:24:30.624Z,4.15
2023-05-14T15:27:28.933Z,5.60
2023-05-14T15:30:19.515Z,3.60
2023-05-14T15:33:12.400Z,4.82
2023-05-14T15:36:01.577Z,4.05
2023-05-14T15:38:49.065Z,4.35
2023-05-14T15:41:36.641Z,4.20
2023-05-14T15:44:28.734Z,5.05
2023-05-14T15:47:16.218Z,3.95
2023-05-14T15:50:04.826Z,5.05
2023-05-14T15:53:02.789Z,4.88
2023-05-14T15:55:50.958Z,5.63
2023-05-14T15:58:44.263Z,5.82
2023-05-14T16:01:31.933Z,5.60
2023-05-14T16:04:30.845Z,6.05
2023-05-14T16:07:18.297Z,5.10
2023-05-14T16:10:08.274Z,6.95
2023-05-14T16:12:55.738Z,5.28
2023-05-14T16:16:00.339Z,7.22
2023-05-14T16:18:48.352Z,6.82
2023-05-14T16:21:44.990Z,5.82
2023-05-14T16:24:56.453Z,6.00
2023-05-14T16:27:46.847Z,6.28
2023-05-14T16:30:35.615Z,4.95
2023-05-14T16:33:29.260Z,3.85
2023-05-14T16:36:16.906Z,4.85
2023-05-14T16:39:07.761Z,4.85
2023-05-14T16:41:55.931Z,3.95
2023-05-14T16:44:50.865Z,5.07
2023-05-14T16:47:38.402Z,5.57
2023-05-14T16:50:32.141Z,5.20
2023-05-14T16:53:19.964Z,4.28
2023-05-14T16:56:48.975Z,6.05
2023-05-14T16:59:38.684Z,5.88
2023-05-14T17:02:27.624Z,6.00
2023-05-14T17:05:24.031Z,6.32
2023-05-14T17:08:12.145Z,7.07
2023-05-14T17:10:59.586Z,7.03
2023-05-14T17:13:54.280Z,6.30
2023-05-14T17:16:50.450Z,5.75
2023-05-14T17:19:40.445Z,5.60
2023-05-14T17:22:39.543Z,6.55
2023-05-14T17:25:28.499Z,5.43
2023-05-14T17:28:16.247Z,5.68
2023-05-14T17:31:03.652Z,6.40
2023-05-14T17:34:16.300Z,6.13
2023-05-14T17:37:05.902Z,5.50
2023-05-14T17:39:54.574Z,5.47
2023-05-14T17:42:42.487Z,5.40
2023-05-14T17:45:42.623Z,6.47
2023-05-14T17:48:45.405Z,6.40
2023-05-14T17:51:33.038Z,6.13
2023-05-14T17:54:45.443Z,5.68
2023-05-14T17:57:37.939Z,6.82
2023-05-14T18:00:25.190Z,6.68
2023-05-14T18:03:15.573Z,6.88
2023-05-14T18:06:05.802Z,6.85
2023-05-14T18:09:00.387Z,6.82
2023-05-14T18:12:14.480Z,7.60
2023-05-14T18:15:03.013Z,8.38
2023-05-14T18:18:21.145Z,8.93
2023-05-14T18:21:11.199Z,9.57
2023-05-14T18:24:01.014Z,9.20
2023-05-14T18:26:48.977Z,9.57
2023-05-14T18:29:40.891Z,9.73
2023-05-14T18:32:31.722Z,9.13
2023-05-14T18:35:23.120Z,9.43
2023-05-14T18:38:12.094Z,8.82
2023-05-14T18:40:59.752Z,12.50
2023-05-14T18:43:59.390Z,13.13
2023-05-14T18:46:49.235Z,13.23
2023-05-14T18:49:38.765Z,8.70
2023-05-14T18:52:29.857Z,7.30
2023-05-14T18:55:21.171Z,5.82
2023-05-14T18:58:09.077Z,4.80
2023-05-14T19:00:59.683Z,4.88
2023-05-14T19:03:49.094Z,5.30
2023-05-14T19:06:58.074Z,5.10
2023-05-14T19:09:46.697Z,5.50
2023-05-14T19:12:52.830Z,4.95
2023-05-14T19:15:42.511Z,5.07
2023-05-14T19:18:33.018Z,5.75
2023-05-14T19:21:30.945Z,5.72
2023-05-14T19:24:20.946Z,7.85
2023-05-14T19:27:13.095Z,10.63
2023-05-14T19:30:00.610Z,9.02
2023-05-14T19:32:48.329Z,10.18
2023-05-14T19:35:35.817Z,10.60
2023-05-14T19:38:24.623Z,11.48
2023-05-14T19:41:13.343Z,11.88
2023-05-14T19:44:01.769Z,11.73
2023-05-14T19:46:53.385Z,8.02
2023-05-14T19:49:41.150Z,9.15
2023-05-14T19:52:29.316Z,8.25
2023-05-14T19:55:21.013Z,8.52
2023-05-14T19:58:08.649Z,8.57
2023-05-14T20:00:57.727Z,10.23
2023-05-14T20:03:55.921Z,9.48
2023-05-14T20:06:49.559Z,9.35
2023-05-14T20:09:39.947Z,9.35
2023-05-14T20:12:28.745Z,10.82
2023-05-14T20:15:16.161Z,11.55
2023-05-14T20:18:03.695Z,14.32
2023-05-14T20:20:57.683Z,15.50
2023-05-14T20:23:45.402Z,16.25
2023-05-14T20:26:33.432Z,19.42
2023-05-14T20:29:22.586Z,18.33
2023-05-14T20:32:10.509Z,18.05
2023-05-14T20:35:02.003Z,18.90
2023-05-14T20:37:50.064Z,20.55
2023-05-14T20:40:37.528Z,22.63
2023-05-14T20:43:26.883Z,21.85
2023-05-14T20:46:16.062Z,20.70
2023-05-14T20:49:04.461Z,17.85
2023-05-14T20:51:52.694Z,13.82
2023-05-14T20:54:44.217Z,12.57
2023-05-14T20:57:34.904Z,13.00
2023-05-14T21:00:22.358Z,12.88
2023-05-14T21:03:14.124Z,12.07
2023-05-14T21:06:02.745Z,12.45
2023-05-14T21:08:50.359Z,13.77
2023-05-14T21:11:37.580Z,12.13
2023-05-14T21:14:27.245Z,13.02
2023-05-14T21:17:14.642Z,12.77
2023-05-14T21:20:04.002Z,12.52
2023-05-14T21:22:51.518Z,12.20
2023-05-14T21:25:41.914Z,14.40
2023-05-14T21:28:34.604Z,16.77
2023-05-14T21:31:22.218Z,17.83
2023-05-14T21:34:12.709Z,20.95
2023-05-14T21:37:01.555Z,22.38
2023-05-14T21:39:48.752Z,21.67
2023-05-14T21:42:36.389Z,23.40
2023-05-14T21:45:24.001Z,18.90
2023-05-14T21:48:11.679Z,21.00
2023-05-14T21:50:59.548Z,20.70
2023-05-14T21:53:48.452Z,20.92
2023-05-14T21:56:37.505Z,22.23
2023-05-14T21:59:24.733Z,21.88
2023-05-14T22:02:18.697Z,19.88
2023-05-14T22:05:06.814Z,18.73
2023-05-14T22:07:54.126Z,16.55
2023-05-14T22:10:43.195Z,16.35
2023-05-14T22:13:30.769Z,12.77
2023-05-14T22:16:18.203Z,12.60
2023-05-14T22:19:06.717Z,12.77
2023-05-14T22:21:56.686Z,12.43
2023-05-14T22:24:44.065Z,12.68
2023-05-14T22:27:42.103Z,13.23
2023-05-14T22:30:31.118Z,13.95
2023-05-14T22:33:19.380Z,12.80
2023-05-14T22:36:07.457Z,15.65
2023-05-14T22:38:54.872Z,16.50
2023-05-14T22:41:46.621Z,17.23
2023-05-14T22:44:38.558Z,17.98
2023-05-14T22:47:26.508Z,16.30
2023-05-14T22:50:14.339Z,14.10
2023-05-14T22:53:01.676Z,15.63
2023-05-14T22:55:48.957Z,13.52
2023-05-14T22:58:39.580Z,15.30
2023-05-14T23:01:37.230Z,14.70
2023-05-14T23:04:24.843Z,14.82
2023-05-14T23:07:12.432Z,14.82
2023-05-14T23:09:59.939Z,16.75
2023-05-14T23:12:47.298Z,14.75
2023-05-14T23:15:34.521Z,16.25
2023-05-14T23:18:24.126Z,15.80
2023-05-14T23:21:11.852Z,12.15
2023-05-14T23:23:59.115Z,16.38
2023-05-14T23:26:46.304Z,16.15
2023-05-14T23:29:33.796Z,16.38
2023-05-14T23:32:21.157Z,17.08
2023-05-14T23:35:10.349Z,17.33
2023-05-14T23:37:57.487Z,18.15
2023-05-14T23:40:44.699Z,16.25
2023-05-14T23:43:33.842Z,17.42
2023-05-14T23:46:21.367Z,17.15
2023-05-14T23:49:08.961Z,17.55
2023-05-14T23:51:57.776Z,18.02
2023-05-14T23:54:45.749Z,17.02
2023-05-14T23:57:33.020Z,17.13
